sensor_id;sensor_type;location;lat;lon;timestamp;temperature;humidity
22940;DHT22;11636;52.086;5.090;2023-06-14T00:02:24;21.10;70.30
22940;DHT22;11636;52.086;5.090;2023-06-14T00:05:10;21.00;70.30
22940;DHT22;11636;52.086;5.090;2023-06-14T00:08:04;21.00;70.30
22940;DHT22;11636;52.086;5.090;2023-06-14T00:10:52;21.00;70.20
22940;DHT22;11636;52.086;5.090;2023-06-14T00:13:44;21.00;70.00
22940;DHT22;11636;52.086;5.090;2023-06-14T00:16:36;21.00;69.80
22940;DHT22;11636;52.086;5.090;2023-06-14T00:19:24;20.90;69.40
22940;DHT22;11636;52.086;5.090;2023-06-14T00:22:17;20.90;69.20
22940;DHT22;11636;52.086;5.090;2023-06-14T00:25:02;21.00;69.00
22940;DHT22;11636;52.086;5.090;2023-06-14T00:28:12;20.90;68.90
22940;DHT22;11636;52.086;5.090;2023-06-14T00:31:03;20.90;68.90
22940;DHT22;11636;52.086;5.090;2023-06-14T00:33:49;20.80;68.70
22940;DHT22;11636;52.086;5.090;2023-06-14T00:36:41;20.80;68.60
22940;DHT22;11636;52.086;5.090;2023-06-14T00:39:34;20.80;68.40
22940;DHT22;11636;52.086;5.090;2023-06-14T00:42:26;20.80;68.20
22940;DHT22;11636;52.086;5.090;2023-06-14T00:45:19;20.80;68.00
22940;DHT22;11636;52.086;5.090;2023-06-14T00:48:11;20.80;67.90
22940;DHT22;11636;52.086;5.090;2023-06-14T00:50:58;20.80;68.00
22940;DHT22;11636;52.086;5.090;2023-06-14T00:53:53;20.70;67.90
22940;DHT22;11636;52.086;5.090;2023-06-14T00:56:39;20.70;68.00
22940;DHT22;11636;52.086;5.090;2023-06-14T00:59:32;20.60;68.10
22940;DHT22;11636;52.086;5.090;2023-06-14T01:02:17;20.60;68.10
22940;DHT22;11636;52.086;5.090;2023-06-14T01:05:10;20.60;68.20
22940;DHT22;11636;52.086;5.090;2023-06-14T01:08:08;20.60;68.40
22940;DHT22;11636;52.086;5.090;2023-06-14T01:11:18;20.50;68.30
22940;DHT22;11636;52.086;5.090;2023-06-14T01:14:13;20.50;68.30
22940;DHT22;11636;52.086;5.090;2023-06-14T01:17:08;20.40;68.20
22940;DHT22;11636;52.086;5.090;2023-06-14T01:20:04;20.40;68.30
22940;DHT22;11636;52.086;5.090;2023-06-14T01:23:01;20.40;68.40
22940;DHT22;11636;52.086;5.090;2023-06-14T01:25:48;20.40;68.50
22940;DHT22;11636;52.086;5.090;2023-06-14T01:28:44;20.30;68.20
22940;DHT22;11636;52.086;5.090;2023-06-14T01:31:40;20.30;68.20
22940;DHT22;11636;52.086;5.090;2023-06-14T01:34:33;20.30;68.30
22940;DHT22;11636;52.086;5.090;2023-06-14T01:37:19;20.20;68.30
22940;DHT22;11636;52.086;5.090;2023-06-14T01:40:12;20.20;68.40
22940;DHT22;11636;52.086;5.090;2023-06-14T01:43:00;20.20;68.40
22940;DHT22;11636;52.086;5.090;2023-06-14T01:45:53;20.20;68.40
22940;DHT22;11636;52.086;5.090;2023-06-14T01:48:46;20.10;68.50
22940;DHT22;11636;52.086;5.090;2023-06-14T01:51:38;20.10;68.60
22940;DHT22;11636;52.086;5.090;2023-06-14T01:54:30;20.10;68.50
22940;DHT22;11636;52.086;5.090;2023-06-14T01:57:16;20.00;68.50
22940;DHT22;11636;52.086;5.090;2023-06-14T02:00:08;20.00;68.40
22940;DHT22;11636;52.086;5.090;2023-06-14T02:03:04;20.00;68.70
22940;DHT22;11636;52.086;5.090;2023-06-14T02:05:49;19.90;68.70
22940;DHT22;11636;52.086;5.090;2023-06-14T02:08:42;19.90;69.10
22940;DHT22;11636;52.086;5.090;2023-06-14T02:11:27;19.90;69.20
22940;DHT22;11636;52.086;5.090;2023-06-14T02:14:19;19.90;69.20
22940;DHT22;11636;52.086;5.090;2023-06-14T02:17:05;19.80;69.10
22940;DHT22;11636;52.086;5.090;2023-06-14T02:19:58;19.90;70.10
22940;DHT22;11636;52.086;5.090;2023-06-14T02:22:45;19.80;69.30
22940;DHT22;11636;52.086;5.090;2023-06-14T02:25:37;19.80;69.30
22940;DHT22;11636;52.086;5.090;2023-06-14T02:28:22;19.80;69.30
22940;DHT22;11636;52.086;5.090;2023-06-14T02:31:14;19.70;69.40
22940;DHT22;11636;52.086;5.090;2023-06-14T02:34:00;19.70;69.30
22940;DHT22;11636;52.086;5.090;2023-06-14T02:36:52;19.70;69.40
22940;DHT22;11636;52.086;5.090;2023-06-14T02:39:38;19.60;69.40
22940;DHT22;11636;52.086;5.090;2023-06-14T02:42:30;19.60;69.50
22940;DHT22;11636;52.086;5.090;2023-06-14T02:45:22;19.60;69.70
22940;DHT22;11636;52.086;5.090;2023-06-14T02:48:08;19.50;70.00
22940;DHT22;11636;52.086;5.090;2023-06-14T02:51:00;19.50;70.20
22940;DHT22;11636;52.086;5.090;2023-06-14T02:53:52;19.40;70.40
22940;DHT22;11636;52.086;5.090;2023-06-14T02:56:38;19.40;70.50
22940;DHT22;11636;52.086;5.090;2023-06-14T02:59:30;19.40;70.70
22940;DHT22;11636;52.086;5.090;2023-06-14T03:02:22;19.30;70.60
22940;DHT22;11636;52.086;5.090;2023-06-14T03:05:22;19.30;70.60
22940;DHT22;11636;52.086;5.090;2023-06-14T03:08:16;19.30;70.70
22940;DHT22;11636;52.086;5.090;2023-06-14T03:11:12;19.30;70.70
22940;DHT22;11636;52.086;5.090;2023-06-14T03:14:04;19.30;70.80
22940;DHT22;11636;52.086;5.090;2023-06-14T03:16:56;19.20;70.90
22940;DHT22;11636;52.086;5.090;2023-06-14T03:19:42;19.20;70.80
22940;DHT22;11636;52.086;5.090;2023-06-14T03:22:34;19.20;71.10
22940;DHT22;11636;52.086;5.090;2023-06-14T03:25:26;19.10;71.10
22940;DHT22;11636;52.086;5.090;2023-06-14T03:28:21;19.10;71.50
22940;DHT22;11636;52.086;5.090;2023-06-14T03:31:13;19.10;71.40
22940;DHT22;11636;52.086;5.090;2023-06-14T03:33:59;19.10;71.50
22940;DHT22;11636;52.086;5.090;2023-06-14T03:36:51;19.00;71.30
22940;DHT22;11636;52.086;5.090;2023-06-14T03:39:43;19.10;71.40
22940;DHT22;11636;52.086;5.090;2023-06-14T03:42:32;19.10;71.40
22940;DHT22;11636;52.086;5.090;2023-06-14T03:45:24;19.00;71.60
22940;DHT22;11636;52.086;5.090;2023-06-14T03:48:16;19.00;71.70
22940;DHT22;11636;52.086;5.090;2023-06-14T03:51:01;18.90;71.70
22940;DHT22;11636;52.086;5.090;2023-06-14T03:53:59;18.90;71.90
22940;DHT22;11636;52.086;5.090;2023-06-14T03:57:05;18.90;71.90
22940;DHT22;11636;52.086;5.090;2023-06-14T03:59:57;18.90;72.10
22940;DHT22;11636;52.086;5.090;2023-06-14T04:02:42;18.90;72.00
22940;DHT22;11636;52.086;5.090;2023-06-14T04:05:35;18.90;72.20
22940;DHT22;11636;52.086;5.090;2023-06-14T04:08:27;18.80;72.50
22940;DHT22;11636;52.086;5.090;2023-06-14T04:11:12;18.80;73.40
22940;DHT22;11636;52.086;5.090;2023-06-14T04:14:05;18.80;72.90
22940;DHT22;11636;52.086;5.090;2023-06-14T04:16:57;18.70;73.00
22940;DHT22;11636;52.086;5.090;2023-06-14T04:19:43;18.70;73.30
22940;DHT22;11636;52.086;5.090;2023-06-14T04:22:35;18.70;73.40
22940;DHT22;11636;52.086;5.090;2023-06-14T04:25:21;18.70;73.60
22940;DHT22;11636;52.086;5.090;2023-06-14T04:28:14;18.70;74.20
22940;DHT22;11636;52.086;5.090;2023-06-14T04:31:00;18.60;74.40
22940;DHT22;11636;52.086;5.090;2023-06-14T04:33:53;18.70;74.50
22940;DHT22;11636;52.086;5.090;2023-06-14T04:36:39;18.70;74.60
22940;DHT22;11636;52.086;5.090;2023-06-14T04:39:33;18.70;74.60
22940;DHT22;11636;52.086;5.090;2023-06-14T04:42:25;18.70;74.90
22940;DHT22;11636;52.086;5.090;2023-06-14T04:45:23;18.70;75.30
22940;DHT22;11636;52.086;5.090;2023-06-14T04:48:09;18.60;75.20
22940;DHT22;11636;52.086;5.090;2023-06-14T04:51:02;18.60;75.30
22940;DHT22;11636;52.086;5.090;2023-06-14T04:53:56;18.60;75.50
22940;DHT22;11636;52.086;5.090;2023-06-14T04:56:45;18.60;75.50
22940;DHT22;11636;52.086;5.090;2023-06-14T04:59:38;18.60;75.40
22940;DHT22;11636;52.086;5.090;2023-06-14T05:02:24;18.60;75.30
22940;DHT22;11636;52.086;5.090;2023-06-14T05:05:17;18.60;75.50
22940;DHT22;11636;52.086;5.090;2023-06-14T05:08:11;18.60;75.60
22940;DHT22;11636;52.086;5.090;2023-06-14T05:11:03;18.70;75.50
22940;DHT22;11636;52.086;5.090;2023-06-14T05:13:55;18.70;75.70
22940;DHT22;11636;52.086;5.090;2023-06-14T05:16:43;18.60;75.70
22940;DHT22;11636;52.086;5.090;2023-06-14T05:19:35;18.70;75.50
22940;DHT22;11636;52.086;5.090;2023-06-14T05:22:27;18.70;75.90
22940;DHT22;11636;52.086;5.090;2023-06-14T05:25:12;18.70;75.70
22940;DHT22;11636;52.086;5.090;2023-06-14T05:28:04;18.70;75.50
22940;DHT22;11636;52.086;5.090;2023-06-14T05:30:51;18.70;75.60
22940;DHT22;11636;52.086;5.090;2023-06-14T05:33:43;18.70;75.60
22940;DHT22;11636;52.086;5.090;2023-06-14T05:36:35;18.70;76.00
22940;DHT22;11636;52.086;5.090;2023-06-14T05:39:22;18.70;76.00
22940;DHT22;11636;52.086;5.090;2023-06-14T05:42:15;18.70;76.10
22940;DHT22;11636;52.086;5.090;2023-06-14T05:45:01;18.80;76.80
22940;DHT22;11636;52.086;5.090;2023-06-14T05:47:52;18.80;76.60
22940;DHT22;11636;52.086;5.090;2023-06-14T05:50:46;18.80;76.50
22940;DHT22;11636;52.086;5.090;2023-06-14T05:53:38;18.80;76.30
22940;DHT22;11636;52.086;5.090;2023-06-14T05:56:23;18.90;76.40
22940;DHT22;11636;52.086;5.090;2023-06-14T05:59:15;18.90;76.90
22940;DHT22;11636;52.086;5.090;2023-06-14T06:02:01;18.90;76.70
22940;DHT22;11636;52.086;5.090;2023-06-14T06:04:53;19.00;76.20
22940;DHT22;11636;52.086;5.090;2023-06-14T06:07:39;19.00;75.90
22940;DHT22;11636;52.086;5.090;2023-06-14T06:10:31;19.10;75.80
22940;DHT22;11636;52.086;5.090;2023-06-14T06:13:17;19.10;75.70
22940;DHT22;11636;52.086;5.090;2023-06-14T06:16:08;19.20;75.90
22940;DHT22;11636;52.086;5.090;2023-06-14T06:18:54;19.20;75.90
22940;DHT22;11636;52.086;5.090;2023-06-14T06:21:45;19.30;75.10
22940;DHT22;11636;52.086;5.090;2023-06-14T06:24:31;19.40;74.90
22940;DHT22;11636;52.086;5.090;2023-06-14T06:27:22;19.40;74.80
22940;DHT22;11636;52.086;5.090;2023-06-14T06:30:08;19.40;74.90
22940;DHT22;11636;52.086;5.090;2023-06-14T06:33:00;19.40;74.50
22940;DHT22;11636;52.086;5.090;2023-06-14T06:35:45;19.50;74.80
22940;DHT22;11636;52.086;5.090;2023-06-14T06:38:37;19.50;75.70
22940;DHT22;11636;52.086;5.090;2023-06-14T06:41:23;19.60;74.90
22940;DHT22;11636;52.086;5.090;2023-06-14T06:44:15;19.60;74.90
22940;DHT22;11636;52.086;5.090;2023-06-14T06:47:08;19.60;75.00
22940;DHT22;11636;52.086;5.090;2023-06-14T06:50:01;19.70;74.80
22940;DHT22;11636;52.086;5.090;2023-06-14T06:52:53;19.70;73.90
22940;DHT22;11636;52.086;5.090;2023-06-14T06:55:45;19.70;74.60
22940;DHT22;11636;52.086;5.090;2023-06-14T06:58:31;19.70;73.50
22940;DHT22;11636;52.086;5.090;2023-06-14T07:01:23;19.70;73.40
22940;DHT22;11636;52.086;5.090;2023-06-14T07:04:16;19.80;73.80
22940;DHT22;11636;52.086;5.090;2023-06-14T07:07:01;19.90;73.30
22940;DHT22;11636;52.086;5.090;2023-06-14T07:09:53;19.90;73.50
22940;DHT22;11636;52.086;5.090;2023-06-14T07:12:39;20.00;73.80
22940;DHT22;11636;52.086;5.090;2023-06-14T07:15:31;20.00;73.60
22940;DHT22;11636;52.086;5.090;2023-06-14T07:18:17;20.00;73.40
22940;DHT22;11636;52.086;5.090;2023-06-14T07:21:10;20.10;73.00
22940;DHT22;11636;52.086;5.090;2023-06-14T07:23:55;20.10;73.00
22940;DHT22;11636;52.086;5.090;2023-06-14T07:26:47;20.10;72.80
22940;DHT22;11636;52.086;5.090;2023-06-14T07:29:34;20.20;73.00
22940;DHT22;11636;52.086;5.090;2023-06-14T07:32:26;20.20;73.10
22940;DHT22;11636;52.086;5.090;2023-06-14T07:35:12;20.20;73.00
22940;DHT22;11636;52.086;5.090;2023-06-14T07:38:04;20.30;72.60
22940;DHT22;11636;52.086;5.090;2023-06-14T07:40:50;20.40;72.60
22940;DHT22;11636;52.086;5.090;2023-06-14T07:43:42;20.50;72.20
22940;DHT22;11636;52.086;5.090;2023-06-14T07:46:33;20.60;71.30
22940;DHT22;11636;52.086;5.090;2023-06-14T07:49:19;20.70;71.00
22940;DHT22;11636;52.086;5.090;2023-06-14T07:52:11;20.80;70.50
22940;DHT22;11636;52.086;5.090;2023-06-14T07:55:05;20.90;70.70
22940;DHT22;11636;52.086;5.090;2023-06-14T07:57:58;21.10;70.20
22940;DHT22;11636;52.086;5.090;2023-06-14T08:00:49;21.10;70.10
22940;DHT22;11636;52.086;5.090;2023-06-14T08:03:42;21.20;70.20
22940;DHT22;11636;52.086;5.090;2023-06-14T08:06:28;21.30;70.10
22940;DHT22;11636;52.086;5.090;2023-06-14T08:09:20;21.50;69.30
22940;DHT22;11636;52.086;5.090;2023-06-14T08:12:12;21.60;69.00
22940;DHT22;11636;52.086;5.090;2023-06-14T08:15:04;21.70;68.60
22940;DHT22;11636;52.086;5.090;2023-06-14T08:17:59;21.80;68.10
22940;DHT22;11636;52.086;5.090;2023-06-14T08:20:46;21.90;67.20
22940;DHT22;11636;52.086;5.090;2023-06-14T08:23:38;22.00;66.50
22940;DHT22;11636;52.086;5.090;2023-06-14T08:26:25;22.20;65.70
22940;DHT22;11636;52.086;5.090;2023-06-14T08:29:20;22.30;65.40
22940;DHT22;11636;52.086;5.090;2023-06-14T08:32:06;22.50;64.90
22940;DHT22;11636;52.086;5.090;2023-06-14T08:34:59;22.70;64.00
22940;DHT22;11636;52.086;5.090;2023-06-14T08:37:51;22.90;64.10
22940;DHT22;11636;52.086;5.090;2023-06-14T08:40:37;23.00;63.10
22940;DHT22;11636;52.086;5.090;2023-06-14T08:43:30;23.10;62.70
22940;DHT22;11636;52.086;5.090;2023-06-14T08:46:17;23.30;62.20
22940;DHT22;11636;52.086;5.090;2023-06-14T08:49:16;23.40;61.90
22940;DHT22;11636;52.086;5.090;2023-06-14T08:52:03;23.60;61.20
22940;DHT22;11636;52.086;5.090;2023-06-14T08:54:57;23.80;61.10
22940;DHT22;11636;52.086;5.090;2023-06-14T08:57:54;23.90;60.60
22940;DHT22;11636;52.086;5.090;2023-06-14T09:00:46;24.00;60.30
22940;DHT22;11636;52.086;5.090;2023-06-14T09:03:39;24.10;58.90
22940;DHT22;11636;52.086;5.090;2023-06-14T09:06:26;24.30;58.20
22940;DHT22;11636;52.086;5.090;2023-06-14T09:09:20;24.30;58.40
22940;DHT22;11636;52.086;5.090;2023-06-14T09:12:13;24.40;57.80
22940;DHT22;11636;52.086;5.090;2023-06-14T09:15:07;24.60;57.40
22940;DHT22;11636;52.086;5.090;2023-06-14T09:17:53;24.70;56.70
22940;DHT22;11636;52.086;5.090;2023-06-14T09:20:46;24.80;56.80
22940;DHT22;11636;52.086;5.090;2023-06-14T09:23:43;24.90;56.10
22940;DHT22;11636;52.086;5.090;2023-06-14T09:26:38;25.00;55.10
22940;DHT22;11636;52.086;5.090;2023-06-14T09:29:25;25.00;55.20
22940;DHT22;11636;52.086;5.090;2023-06-14T09:32:18;25.20;55.20
22940;DHT22;11636;52.086;5.090;2023-06-14T09:35:05;25.40;54.90
22940;DHT22;11636;52.086;5.090;2023-06-14T09:37:57;25.50;54.70
22940;DHT22;11636;52.086;5.090;2023-06-14T09:40:42;25.60;54.30
22940;DHT22;11636;52.086;5.090;2023-06-14T09:43:34;25.70;54.20
22940;DHT22;11636;52.086;5.090;2023-06-14T09:46:28;25.80;53.90
22940;DHT22;11636;52.086;5.090;2023-06-14T09:49:14;25.90;54.10
22940;DHT22;11636;52.086;5.090;2023-06-14T09:52:10;25.90;54.20
22940;DHT22;11636;52.086;5.090;2023-06-14T09:55:12;26.10;54.10
22940;DHT22;11636;52.086;5.090;2023-06-14T09:58:06;26.20;52.80
22940;DHT22;11636;52.086;5.090;2023-06-14T10:00:54;26.40;52.40
22940;DHT22;11636;52.086;5.090;2023-06-14T10:03:49;26.40;52.10
22940;DHT22;11636;52.086;5.090;2023-06-14T10:06:45;26.50;51.80
22940;DHT22;11636;52.086;5.090;2023-06-14T10:09:36;26.60;51.00
22940;DHT22;11636;52.086;5.090;2023-06-14T10:12:22;26.70;50.70
22940;DHT22;11636;52.086;5.090;2023-06-14T10:15:20;26.70;51.00
22940;DHT22;11636;52.086;5.090;2023-06-14T10:18:24;26.90;51.50
22940;DHT22;11636;52.086;5.090;2023-06-14T10:21:22;26.90;52.20
22940;DHT22;11636;52.086;5.090;2023-06-14T10:24:16;27.00;51.90
22940;DHT22;11636;52.086;5.090;2023-06-14T10:27:13;27.10;51.60
22940;DHT22;11636;52.086;5.090;2023-06-14T10:30:02;27.20;51.30
22940;DHT22;11636;52.086;5.090;2023-06-14T10:33:08;27.40;50.40
22940;DHT22;11636;52.086;5.090;2023-06-14T10:36:30;27.50;48.50
22940;DHT22;11636;52.086;5.090;2023-06-14T10:39:23;27.60;48.80
22940;DHT22;11636;52.086;5.090;2023-06-14T10:42:15;27.70;48.90
22940;DHT22;11636;52.086;5.090;2023-06-14T10:45:13;27.70;49.20
22940;DHT22;11636;52.086;5.090;2023-06-14T10:47:58;27.80;49.40
22940;DHT22;11636;52.086;5.090;2023-06-14T10:51:00;27.90;49.00
22940;DHT22;11636;52.086;5.090;2023-06-14T10:53:50;27.90;48.40
22940;DHT22;11636;52.086;5.090;2023-06-14T10:59:39;28.10;49.10
22940;DHT22;11636;52.086;5.090;2023-06-14T11:05:54;28.30;47.90
22940;DHT22;11636;52.086;5.090;2023-06-14T11:09:10;28.40;48.00
22940;DHT22;11636;52.086;5.090;2023-06-14T11:12:08;28.50;47.10
22940;DHT22;11636;52.086;5.090;2023-06-14T11:14:55;28.40;46.40
22940;DHT22;11636;52.086;5.090;2023-06-14T11:17:53;28.40;47.10
22940;DHT22;11636;52.086;5.090;2023-06-14T11:20:46;28.50;46.70
22940;DHT22;11636;52.086;5.090;2023-06-14T11:23:39;28.60;47.90
22940;DHT22;11636;52.086;5.090;2023-06-14T11:26:29;28.70;48.00
22940;DHT22;11636;52.086;5.090;2023-06-14T11:29:22;28.90;48.20
22940;DHT22;11636;52.086;5.090;2023-06-14T11:32:08;29.00;48.30
22940;DHT22;11636;52.086;5.090;2023-06-14T11:35:04;29.10;48.40
22940;DHT22;11636;52.086;5.090;2023-06-14T11:37:57;29.20;47.80
22940;DHT22;11636;52.086;5.090;2023-06-14T11:40:49;29.20;47.20
22940;DHT22;11636;52.086;5.090;2023-06-14T11:43:34;29.20;47.10
22940;DHT22;11636;52.086;5.090;2023-06-14T11:46:27;29.20;46.70
22940;DHT22;11636;52.086;5.090;2023-06-14T11:49:12;29.20;46.90
22940;DHT22;11636;52.086;5.090;2023-06-14T11:52:05;29.30;47.00
22940;DHT22;11636;52.086;5.090;2023-06-14T11:54:51;29.20;45.70
22940;DHT22;11636;52.086;5.090;2023-06-14T11:57:43;29.20;46.20
22940;DHT22;11636;52.086;5.090;2023-06-14T12:00:35;29.20;46.40
22940;DHT22;11636;52.086;5.090;2023-06-14T12:03:25;29.30;45.90
22940;DHT22;11636;52.086;5.090;2023-06-14T12:06:26;29.50;46.30
22940;DHT22;11636;52.086;5.090;2023-06-14T12:09:24;29.60;46.20
22940;DHT22;11636;52.086;5.090;2023-06-14T12:12:12;29.60;45.40
22940;DHT22;11636;52.086;5.090;2023-06-14T12:15:05;29.60;46.30
22940;DHT22;11636;52.086;5.090;2023-06-14T12:17:59;29.50;46.20
22940;DHT22;11636;52.086;5.090;2023-06-14T12:20:51;29.60;46.50
22940;DHT22;11636;52.086;5.090;2023-06-14T12:23:43;29.70;46.10
22940;DHT22;11636;52.086;5.090;2023-06-14T12:26:38;29.80;45.70
22940;DHT22;11636;52.086;5.090;2023-06-14T12:29:32;29.80;45.50
22940;DHT22;11636;52.086;5.090;2023-06-14T12:32:18;30.00;45.60
22940;DHT22;11636;52.086;5.090;2023-06-14T12:35:10;30.10;45.70
22940;DHT22;11636;52.086;5.090;2023-06-14T12:37:56;30.00;45.20
22940;DHT22;11636;52.086;5.090;2023-06-14T12:40:48;30.10;45.50
22940;DHT22;11636;52.086;5.090;2023-06-14T12:43:34;30.20;45.20
22940;DHT22;11636;52.086;5.090;2023-06-14T12:46:26;30.30;45.40
22940;DHT22;11636;52.086;5.090;2023-06-14T12:49:12;30.40;45.30
22940;DHT22;11636;52.086;5.090;2023-06-14T12:52:04;30.40;44.50
22940;DHT22;11636;52.086;5.090;2023-06-14T12:54:50;30.40;44.70
22940;DHT22;11636;52.086;5.090;2023-06-14T12:57:42;30.50;44.70
22940;DHT22;11636;52.086;5.090;2023-06-14T13:00:35;30.70;44.50
22940;DHT22;11636;52.086;5.090;2023-06-14T13:03:27;30.70;44.10
22940;DHT22;11636;52.086;5.090;2023-06-14T13:06:22;30.70;44.20
22940;DHT22;11636;52.086;5.090;2023-06-14T13:09:08;30.70;44.00
22940;DHT22;11636;52.086;5.090;2023-06-14T13:12:00;30.70;44.50
22940;DHT22;11636;52.086;5.090;2023-06-14T13:14:46;30.90;45.10
22940;DHT22;11636;52.086;5.090;2023-06-14T13:17:38;31.00;45.10
22940;DHT22;11636;52.086;5.090;2023-06-14T13:20:31;31.00;44.70
22940;DHT22;11636;52.086;5.090;2023-06-14T13:23:17;31.00;44.00
22940;DHT22;11636;52.086;5.090;2023-06-14T13:26:09;31.00;44.10
22940;DHT22;11636;52.086;5.090;2023-06-14T13:28:55;31.00;44.30
22940;DHT22;11636;52.086;5.090;2023-06-14T13:31:47;31.00;44.20
22940;DHT22;11636;52.086;5.090;2023-06-14T13:34:33;31.00;44.50
22940;DHT22;11636;52.086;5.090;2023-06-14T13:37:25;31.00;44.70
22940;DHT22;11636;52.086;5.090;2023-06-14T13:40:17;31.00;44.80
22940;DHT22;11636;52.086;5.090;2023-06-14T13:43:03;31.00;44.30
22940;DHT22;11636;52.086;5.090;2023-06-14T13:45:56;31.00;44.30
22940;DHT22;11636;52.086;5.090;2023-06-14T13:48:42;30.90;44.60
22940;DHT22;11636;52.086;5.090;2023-06-14T13:51:34;30.90;44.00
22940;DHT22;11636;52.086;5.090;2023-06-14T13:54:20;30.80;44.20
22940;DHT22;11636;52.086;5.090;2023-06-14T13:57:14;30.80;43.70
22940;DHT22;11636;52.086;5.090;2023-06-14T14:00:00;30.90;43.60
22940;DHT22;11636;52.086;5.090;2023-06-14T14:02:53;30.90;43.00
22940;DHT22;11636;52.086;5.090;2023-06-14T14:05:46;30.90;43.50
22940;DHT22;11636;52.086;5.090;2023-06-14T14:08:38;30.90;43.40
22940;DHT22;11636;52.086;5.090;2023-06-14T14:11:31;30.90;42.10
22940;DHT22;11636;52.086;5.090;2023-06-14T14:14:18;30.80;42.20
22940;DHT22;11636;52.086;5.090;2023-06-14T14:17:10;30.90;42.90
22940;DHT22;11636;52.086;5.090;2023-06-14T14:20:02;31.00;43.00
22940;DHT22;11636;52.086;5.090;2023-06-14T14:22:55;31.10;42.60
22940;DHT22;11636;52.086;5.090;2023-06-14T14:25:41;31.10;43.10
22940;DHT22;11636;52.086;5.090;2023-06-14T14:28:33;31.20;43.40
22940;DHT22;11636;52.086;5.090;2023-06-14T14:31:19;31.20;43.00
22940;DHT22;11636;52.086;5.090;2023-06-14T14:34:12;31.10;43.00
22940;DHT22;11636;52.086;5.090;2023-06-14T14:36:57;31.10;42.70
22940;DHT22;11636;52.086;5.090;2023-06-14T14:39:49;31.00;42.50
22940;DHT22;11636;52.086;5.090;2023-06-14T14:42:36;31.10;42.60
22940;DHT22;11636;52.086;5.090;2023-06-14T14:45:28;31.10;43.10
22940;DHT22;11636;52.086;5.090;2023-06-14T14:48:14;31.30;44.10
22940;DHT22;11636;52.086;5.090;2023-06-14T14:51:06;31.30;43.80
22940;DHT22;11636;52.086;5.090;2023-06-14T14:53:58;31.40;43.30
22940;DHT22;11636;52.086;5.090;2023-06-14T14:56:43;31.40;43.20
22940;DHT22;11636;52.086;5.090;2023-06-14T14:59:36;31.30;43.10
22940;DHT22;11636;52.086;5.090;2023-06-14T15:02:28;31.20;43.90
22940;DHT22;11636;52.086;5.090;2023-06-14T15:05:20;31.10;43.50
22940;DHT22;11636;52.086;5.090;2023-06-14T15:08:12;31.20;44.00
22940;DHT22;11636;52.086;5.090;2023-06-14T15:11:04;31.20;44.00
22940;DHT22;11636;52.086;5.090;2023-06-14T15:13:49;31.30;43.50
22940;DHT22;11636;52.086;5.090;2023-06-14T15:16:43;31.20;43.10
22940;DHT22;11636;52.086;5.090;2023-06-14T15:19:41;31.20;42.90
22940;DHT22;11636;52.086;5.090;2023-06-14T15:22:27;31.10;42.70
22940;DHT22;11636;52.086;5.090;2023-06-14T15:25:19;31.10;42.80
22940;DHT22;11636;52.086;5.090;2023-06-14T15:28:06;31.10;42.80
22940;DHT22;11636;52.086;5.090;2023-06-14T15:30:59;31.20;43.30
22940;DHT22;11636;52.086;5.090;2023-06-14T15:33:45;31.30;43.10
22940;DHT22;11636;52.086;5.090;2023-06-14T15:36:37;31.20;42.10
22940;DHT22;11636;52.086;5.090;2023-06-14T15:39:22;31.10;42.50
22940;DHT22;11636;52.086;5.090;2023-06-14T15:42:15;31.00;42.50
22940;DHT22;11636;52.086;5.090;2023-06-14T15:45:14;31.00;43.10
22940;DHT22;11636;52.086;5.090;2023-06-14T15:48:07;31.10;43.20
22940;DHT22;11636;52.086;5.090;2023-06-14T15:50:53;31.10;42.60
22940;DHT22;11636;52.086;5.090;2023-06-14T15:54:06;31.10;42.10
22940;DHT22;11636;52.086;5.090;2023-06-14T15:57:10;31.00;41.90
22940;DHT22;11636;52.086;5.090;2023-06-14T15:59:57;31.10;42.30
22940;DHT22;11636;52.086;5.090;2023-06-14T16:02:49;31.20;42.10
22940;DHT22;11636;52.086;5.090;2023-06-14T16:05:35;31.30;41.90
22940;DHT22;11636;52.086;5.090;2023-06-14T16:08:27;31.30;42.10
22940;DHT22;11636;52.086;5.090;2023-06-14T16:11:25;31.30;41.30
22940;DHT22;11636;52.086;5.090;2023-06-14T16:14:17;31.10;40.60
22940;DHT22;11636;52.086;5.090;2023-06-14T16:17:09;31.00;41.30
22940;DHT22;11636;52.086;5.090;2023-06-14T16:19:55;31.00;42.00
22940;DHT22;11636;52.086;5.090;2023-06-14T16:22:47;31.00;42.00
22940;DHT22;11636;52.086;5.090;2023-06-14T16:25:39;30.90;42.30
22940;DHT22;11636;52.086;5.090;2023-06-14T16:28:31;30.80;41.80
22940;DHT22;11636;52.086;5.090;2023-06-14T16:31:17;30.70;42.40
22940;DHT22;11636;52.086;5.090;2023-06-14T16:34:11;30.70;43.00
22940;DHT22;11636;52.086;5.090;2023-06-14T16:36:57;30.70;42.70
22940;DHT22;11636;52.086;5.090;2023-06-14T16:39:49;30.50;43.30
22940;DHT22;11636;52.086;5.090;2023-06-14T16:42:41;30.40;42.90
22940;DHT22;11636;52.086;5.090;2023-06-14T16:45:27;30.30;43.20
22940;DHT22;11636;52.086;5.090;2023-06-14T16:48:19;30.20;43.00
22940;DHT22;11636;52.086;5.090;2023-06-14T16:51:05;30.00;43.10
22940;DHT22;11636;52.086;5.090;2023-06-14T16:53:57;29.80;43.60
22940;DHT22;11636;52.086;5.090;2023-06-14T16:56:43;29.50;44.00
22940;DHT22;11636;52.086;5.090;2023-06-14T16:59:37;29.40;44.20
22940;DHT22;11636;52.086;5.090;2023-06-14T17:02:28;29.10;44.80
22940;DHT22;11636;52.086;5.090;2023-06-14T17:05:21;28.80;45.10
22940;DHT22;11636;52.086;5.090;2023-06-14T17:08:07;28.60;45.50
22940;DHT22;11636;52.086;5.090;2023-06-14T17:10:59;28.30;45.90
22940;DHT22;11636;52.086;5.090;2023-06-14T17:13:45;28.10;46.40
22940;DHT22;11636;52.086;5.090;2023-06-14T17:16:36;27.80;47.10
22940;DHT22;11636;52.086;5.090;2023-06-14T17:19:29;27.70;47.20
22940;DHT22;11636;52.086;5.090;2023-06-14T17:22:20;27.50;46.90
22940;DHT22;11636;52.086;5.090;2023-06-14T17:25:06;27.30;47.00
22940;DHT22;11636;52.086;5.090;2023-06-14T17:27:58;27.20;46.80
22940;DHT22;11636;52.086;5.090;2023-06-14T17:30:50;27.10;46.70
22940;DHT22;11636;52.086;5.090;2023-06-14T17:33:42;27.00;46.70
22940;DHT22;11636;52.086;5.090;2023-06-14T17:36:28;26.90;46.70
22940;DHT22;11636;52.086;5.090;2023-06-14T17:39:20;26.70;46.50
22940;DHT22;11636;52.086;5.090;2023-06-14T17:42:06;26.70;47.00
22940;DHT22;11636;52.086;5.090;2023-06-14T17:44:58;26.60;47.30
22940;DHT22;11636;52.086;5.090;2023-06-14T17:47:50;26.50;47.30
22940;DHT22;11636;52.086;5.090;2023-06-14T17:50:43;26.50;47.50
22940;DHT22;11636;52.086;5.090;2023-06-14T17:53:28;26.40;47.90
22940;DHT22;11636;52.086;5.090;2023-06-14T17:56:20;26.40;48.20
22940;DHT22;11636;52.086;5.090;2023-06-14T17:59:12;26.30;48.40
22940;DHT22;11636;52.086;5.090;2023-06-14T18:02:05;26.20;48.40
22940;DHT22;11636;52.086;5.090;2023-06-14T18:04:52;26.10;48.30
22940;DHT22;11636;52.086;5.090;2023-06-14T18:07:46;26.10;48.70